Ana Sayfa
METAR-TAF:

METAR-TAF

Havaalanları :

Novy Havalimanı

Habarovsk, Rusya

Enlem: 48-31N, Boylam: 135-10E, yükseklik: 72 m

Güncel hava durumu gözlemi

Rapor saat 09:30 UTC de 25 dakika önce yapıldı.
Rüzgar batı/güneybatıdan 10 kt
Sıcaklık 16°C
Nem 42%
Basınç 1011 hPa
Görüş mesafesi 10 km veya daha fazla
1500 m altında bulut yok ve kümülonimbus yok

METAR: UHHH 240930Z 25005MPS CAVOK 16/03 Q1011 R88/090060 NOSIG RMK QFE752/1003

Saat: 19:55 (09:55 UTC)

Tahmin

Rapor saat 07:55 UTC de 2 saat ve 0 dakika önce yapıldı.
Ayın 24'si saat 09 UTC'den ayın 25'si saat 15 UTC'ye kadar geçerli Tahmin
Rüzgar batıdan 6 kt
Görüş mesafesi 10 km veya daha fazla
3000 ft yükseklikte parçalı bulutlu, Kümülonimbus.
Geçici
ayın 24'si saat 14 UTC'den ayın 24'si saat 24 UTC'ye kadar
Rüzgar batı/güneybatıdan 14 kt
Görüş mesafesi: 5000 m
hafif sağanak yağmurlar, Pus,

TAF: UHHH 240755Z 2409/2515 27003MPS 9999 SCT030CB TEMPO 2414/2424 25007MPS 5000 -SHRA BR

4.000'den fazla havaalanı için hava durumu gözlemleri ve tahminleri (METAR ve TAF raporları).

Kullanılabilir istasyonlar harita üzerinde sarı ve kırmızı noktalarla gösterilir.

İstasyonun adını görmek için fareyi noktanın üzerinde gezdirin.

Sonrasında hava gözlem ve tahminlerini görmek için tıklayın.

Haritayı değiştirmek için: yaklaştırmak için siyah artı işaretli yeşil düğmeye ve uzaklaştırmak için de eksi işaretli düğmeye hızla tıklayın; bitişik haritalar için yeşil okları kullanın.


METAR-TAF: